createdAt,value
2019-01-24T00:00:46.528Z,-7.10
2019-01-24T00:03:22.762Z,-7.10
2019-01-24T00:06:00.136Z,-7.20
2019-01-24T00:08:31.756Z,-7.20
2019-01-24T00:11:06.527Z,-7.20
2019-01-24T00:13:39.460Z,-7.20
2019-01-24T00:16:10.614Z,-7.30
2019-01-24T00:18:43.696Z,-7.30
2019-01-24T00:21:15.367Z,-7.30
2019-01-24T00:23:45.867Z,-7.30
2019-01-24T00:26:21.383Z,-7.30
2019-01-24T00:28:52.659Z,-7.40
2019-01-24T00:31:22.863Z,-7.40
2019-01-24T00:33:53.547Z,-7.40
2019-01-24T00:36:26.224Z,-7.40
2019-01-24T00:38:59.301Z,-7.50
2019-01-24T00:41:34.815Z,-7.50
2019-01-24T00:46:45.207Z,-7.40
2019-01-24T00:49:18.463Z,-7.40
2019-01-24T00:54:25.672Z,-7.40
2019-01-24T00:56:55.599Z,-7.50
2019-01-24T00:59:26.611Z,-7.50
2019-01-24T01:01:59.601Z,-7.50
2019-01-24T01:04:30.006Z,-7.50
2019-01-24T01:07:02.456Z,-7.70
2019-01-24T01:12:11.278Z,-7.70
2019-01-24T01:14:45.759Z,-7.70
2019-01-24T01:17:17.887Z,-7.70
2019-01-24T01:19:50.948Z,-7.70
2019-01-24T01:22:23.628Z,-7.70
2019-01-24T01:24:55.514Z,-7.70
2019-01-24T01:27:28.196Z,-7.70
2019-01-24T01:30:01.441Z,-7.60
2019-01-24T01:32:35.475Z,-7.70
2019-01-24T01:35:09.128Z,-7.70
2019-01-24T01:37:44.163Z,-7.70
2019-01-24T01:40:20.520Z,-7.80
2019-01-24T01:45:33.646Z,-7.90
2019-01-24T01:48:07.207Z,-8.00
2019-01-24T01:50:39.277Z,-8.00
2019-01-24T01:53:13.013Z,-8.00
2019-01-24T01:55:48.039Z,-8.10
2019-01-24T01:58:20.616Z,-8.10
2019-01-24T02:00:52.767Z,-8.10
2019-01-24T02:03:26.800Z,-8.20
2019-01-24T02:08:30.511Z,-8.20
2019-01-24T02:11:01.775Z,-8.20
2019-01-24T02:13:34.415Z,-8.30
2019-01-24T02:16:05.339Z,-8.30
2019-01-24T02:18:36.475Z,-8.30
2019-01-24T02:21:07.538Z,-8.30
2019-01-24T02:23:40.287Z,-8.30
2019-01-24T02:28:45.156Z,-8.40
2019-01-24T02:31:18.783Z,-8.50
2019-01-24T02:33:50.005Z,-8.60
2019-01-24T02:36:20.236Z,-8.60
2019-01-24T02:38:51.218Z,-8.60
2019-01-24T02:41:24.263Z,-8.70
2019-01-24T02:43:58.251Z,-8.60
2019-01-24T02:46:45.778Z,-8.50
2019-01-24T02:52:02.286Z,-8.40
2019-01-24T02:54:34.116Z,-8.30
2019-01-24T02:57:10.431Z,-8.20
2019-01-24T02:59:47.007Z,-8.10
2019-01-24T03:04:57.128Z,-8.00
2019-01-24T03:07:30.125Z,-7.90
2019-01-24T03:10:03.331Z,-7.90
2019-01-24T03:12:37.933Z,-7.80
2019-01-24T03:15:12.452Z,-7.80
2019-01-24T03:17:46.194Z,-7.80
2019-01-24T03:20:19.493Z,-7.70
2019-01-24T03:22:53.574Z,-7.70
2019-01-24T03:25:28.447Z,-7.70
2019-01-24T03:28:01.351Z,-7.80
2019-01-24T03:30:34.148Z,-7.80
2019-01-24T03:33:07.257Z,-7.70
2019-01-24T03:35:42.020Z,-7.80
2019-01-24T03:38:15.589Z,-7.80
2019-01-24T03:40:48.395Z,-7.80
2019-01-24T03:43:19.108Z,-7.90
2019-01-24T03:45:49.562Z,-7.90
2019-01-24T03:48:21.028Z,-7.90
2019-01-24T03:50:54.193Z,-7.90
2019-01-24T03:53:27.746Z,-7.90
2019-01-24T03:56:02.447Z,-7.90
2019-01-24T03:58:34.591Z,-7.90
2019-01-24T04:01:08.654Z,-8.00
2019-01-24T04:03:41.578Z,-7.90
2019-01-24T04:06:12.336Z,-8.00
2019-01-24T04:08:45.923Z,-8.00
2019-01-24T04:11:22.212Z,-8.10
2019-01-24T04:13:58.591Z,-8.10
2019-01-24T04:19:04.415Z,-8.30
2019-01-24T04:21:38.374Z,-8.40
2019-01-24T04:24:12.043Z,-8.40
2019-01-24T04:26:46.564Z,-8.50
2019-01-24T04:29:19.305Z,-8.60
2019-01-24T04:31:49.539Z,-8.60
2019-01-24T04:34:23.647Z,-8.70
2019-01-24T04:36:57.265Z,-8.70
2019-01-24T04:39:31.911Z,-8.70
2019-01-24T04:44:38.226Z,-8.80
2019-01-24T04:49:45.519Z,-8.90
2019-01-24T04:54:50.911Z,-9.00
2019-01-24T04:57:25.413Z,-9.10
2019-01-24T04:59:59.140Z,-9.10
2019-01-24T05:02:31.243Z,-9.10
2019-01-24T05:05:07.020Z,-9.20
2019-01-24T05:07:39.759Z,-9.20
2019-01-24T05:10:15.939Z,-9.20
2019-01-24T05:12:49.711Z,-9.30
2019-01-24T05:15:19.563Z,-9.30
2019-01-24T05:17:55.051Z,-9.30
2019-01-24T05:20:28.291Z,-9.30
2019-01-24T05:23:02.992Z,-9.30
2019-01-24T05:25:37.986Z,-9.40
2019-01-24T05:30:49.575Z,-9.40
2019-01-24T05:33:25.023Z,-9.40
2019-01-24T05:35:57.175Z,-9.40
2019-01-24T05:38:30.531Z,-9.40
2019-01-24T05:41:01.978Z,-9.40
2019-01-24T05:43:32.191Z,-9.40
2019-01-24T05:46:02.344Z,-9.40
2019-01-24T05:48:34.255Z,-9.40
2019-01-24T05:51:04.767Z,-9.40
2019-01-24T05:53:39.394Z,-9.40
2019-01-24T05:56:13.067Z,-9.50
2019-01-24T05:58:46.655Z,-9.50
2019-01-24T06:01:19.967Z,-9.50
2019-01-24T06:03:55.540Z,-9.50
2019-01-24T06:06:27.353Z,-9.50
2019-01-24T06:09:02.024Z,-9.50
2019-01-24T06:11:35.775Z,-9.50
2019-01-24T06:14:07.879Z,-9.50
2019-01-24T06:16:38.817Z,-9.50
2019-01-24T06:19:10.765Z,-9.50
2019-01-24T06:21:45.314Z,-9.60
2019-01-24T06:24:19.915Z,-9.60
2019-01-24T06:26:53.919Z,-9.60
2019-01-24T06:29:27.673Z,-9.70
2019-01-24T06:32:02.223Z,-9.70
2019-01-24T06:34:35.248Z,-9.70
2019-01-24T06:37:05.803Z,-9.70
2019-01-24T06:39:36.070Z,-9.70
2019-01-24T06:42:09.631Z,-9.80
2019-01-24T06:44:42.183Z,-9.80
2019-01-24T06:47:17.731Z,-9.90
2019-01-24T06:49:52.227Z,-9.90
2019-01-24T06:52:26.175Z,-9.90
2019-01-24T06:54:59.703Z,-9.90
2019-01-24T06:57:32.384Z,-9.90
2019-01-24T07:00:05.439Z,-9.90
2019-01-24T07:02:39.503Z,-9.90
2019-01-24T07:05:11.990Z,-9.90
2019-01-24T07:07:47.567Z,-9.90
2019-01-24T07:10:21.926Z,-10.00
2019-01-24T07:12:53.186Z,-10.00
2019-01-24T07:15:29.374Z,-9.90
2019-01-24T07:18:01.043Z,-9.90
2019-01-24T07:20:36.133Z,-10.00
2019-01-24T07:23:10.468Z,-9.90
2019-01-24T07:25:40.863Z,-9.90
2019-01-24T07:28:14.021Z,-9.90
2019-01-24T07:30:46.730Z,-9.90
2019-01-24T07:33:18.881Z,-10.00
2019-01-24T07:35:51.903Z,-10.00
2019-01-24T07:38:23.971Z,-10.00
2019-01-24T07:40:58.571Z,-9.90
2019-01-24T07:43:29.808Z,-9.90
2019-01-24T07:46:03.328Z,-9.80
2019-01-24T07:48:36.287Z,-9.80
2019-01-24T07:51:08.866Z,-9.80
2019-01-24T07:53:40.779Z,-9.70
2019-01-24T07:56:16.259Z,-9.70
2019-01-24T07:58:48.815Z,-9.60
2019-01-24T08:01:25.089Z,-9.50
2019-01-24T08:03:58.084Z,-9.40
2019-01-24T08:06:28.483Z,-9.30
2019-01-24T08:08:59.745Z,-9.20
2019-01-24T08:11:35.330Z,-9.20
2019-01-24T08:14:08.012Z,-9.10
2019-01-24T08:16:41.695Z,-9.00
2019-01-24T08:19:15.219Z,-9.00
2019-01-24T08:21:48.287Z,-8.90
2019-01-24T08:24:21.908Z,-8.80
2019-01-24T08:26:57.959Z,-8.80
2019-01-24T08:29:30.967Z,-8.70
2019-01-24T08:32:05.191Z,-8.70
2019-01-24T08:34:37.285Z,-8.60
2019-01-24T08:37:13.729Z,-8.50
2019-01-24T08:45:23.601Z,-8.20
2019-01-24T08:47:55.123Z,-8.20
2019-01-24T08:50:36.457Z,-8.10
2019-01-24T08:53:08.268Z,-8.00
2019-01-24T08:55:41.537Z,-7.90
2019-01-24T08:58:18.251Z,-7.80
2019-01-24T09:00:49.258Z,-7.70
2019-01-24T09:03:19.907Z,-7.60
2019-01-24T09:05:51.427Z,-7.50
2019-01-24T09:09:05.151Z,-7.50
2019-01-24T09:30:47.108Z,-6.80
2019-01-24T09:33:22.235Z,-6.70
2019-01-24T09:36:32.397Z,-6.70
2019-01-24T09:39:04.454Z,-6.60
2019-01-24T09:41:35.046Z,-6.50
2019-01-24T09:44:08.110Z,-6.40
2019-01-24T09:46:40.101Z,-6.30
2019-01-24T09:49:10.397Z,-6.30
2019-01-24T09:51:44.153Z,-6.20
2019-01-24T09:54:15.037Z,-6.10
2019-01-24T09:56:45.264Z,-6.10
2019-01-24T09:59:20.412Z,-6.00
2019-01-24T10:01:49.916Z,-5.90
2019-01-24T10:04:27.568Z,-5.80
2019-01-24T10:06:59.363Z,-5.70
2019-01-24T10:09:29.169Z,-5.60
2019-01-24T10:11:59.588Z,-5.40
2019-01-24T10:14:29.427Z,-5.30
2019-01-24T10:16:59.140Z,-5.30
2019-01-24T10:19:29.230Z,-5.20
2019-01-24T10:21:59.144Z,-5.10
2019-01-24T10:24:28.956Z,-5.00
2019-01-24T10:27:02.453Z,-4.90
2019-01-24T10:29:32.407Z,-4.90
2019-01-24T10:32:02.189Z,-4.80
2019-01-24T10:34:32.260Z,-4.70
2019-01-24T10:37:02.038Z,-4.60
2019-01-24T10:39:31.624Z,-4.50
2019-01-24T10:42:03.143Z,-4.40
2019-01-24T10:44:35.850Z,-4.30
2019-01-24T10:47:17.084Z,-4.20
2019-01-24T10:49:55.749Z,-4.10
2019-01-24T10:52:29.605Z,-4.10
2019-01-24T10:55:01.197Z,-4.00
2019-01-24T10:57:30.778Z,-3.80
2019-01-24T11:00:00.358Z,-3.80
2019-01-24T11:02:29.992Z,-3.70
2019-01-24T11:05:05.374Z,-3.70
2019-01-24T11:07:37.022Z,-3.50
2019-01-24T11:10:12.665Z,-3.50
2019-01-24T11:12:43.117Z,-3.50
2019-01-24T11:15:20.751Z,-3.40
2019-01-24T11:18:00.810Z,-3.40
2019-01-24T11:20:35.306Z,-3.40
2019-01-24T11:23:06.961Z,-3.40
2019-01-24T11:25:38.466Z,-3.30
2019-01-24T11:28:12.680Z,-3.30
2019-01-24T11:30:49.741Z,-3.20
2019-01-24T11:33:19.721Z,-3.20
2019-01-24T11:35:49.644Z,-3.20
2019-01-24T11:38:19.514Z,-3.20
2019-01-24T11:40:49.638Z,-3.20
2019-01-24T11:43:27.270Z,-3.20
2019-01-24T11:46:07.858Z,-3.20
2019-01-24T11:48:43.955Z,-3.20
2019-01-24T11:51:18.154Z,-3.20
2019-01-24T11:53:53.048Z,-3.20
2019-01-24T11:56:19.314Z,-3.20
2019-01-24T11:58:49.527Z,-3.20
2019-01-24T12:01:21.251Z,-3.20
2019-01-24T12:03:58.054Z,-3.20
2019-01-24T12:06:27.619Z,-3.20
2019-01-24T12:08:58.156Z,-3.20
2019-01-24T12:11:30.413Z,-3.30
2019-01-24T12:14:05.379Z,-3.30
2019-01-24T12:16:35.400Z,-3.40
2019-01-24T12:19:05.362Z,-3.30
2019-01-24T12:25:35.830Z,-3.30
2019-01-24T12:31:17.281Z,-3.40
2019-01-24T12:33:47.417Z,-3.40
2019-01-24T12:36:19.482Z,-3.40
2019-01-24T12:38:53.798Z,-3.40
2019-01-24T12:41:26.549Z,-3.40
2019-01-24T12:46:39.057Z,-3.30
2019-01-24T12:49:25.223Z,-3.20
2019-01-24T12:52:01.003Z,-3.30
2019-01-24T12:54:34.742Z,-3.30
2019-01-24T12:57:08.799Z,-3.30
2019-01-24T12:59:39.183Z,-3.30
2019-01-24T13:02:14.344Z,-3.30
2019-01-24T13:04:48.167Z,-3.30
2019-01-24T13:07:27.080Z,-3.30
2019-01-24T13:10:06.804Z,-3.30
2019-01-24T13:12:45.095Z,-3.30
2019-01-24T13:15:26.409Z,-3.30
2019-01-24T13:17:59.924Z,-3.30
2019-01-24T13:20:33.719Z,-3.40
2019-01-24T13:23:03.862Z,-3.40
2019-01-24T13:25:41.483Z,-3.40
2019-01-24T13:28:21.249Z,-3.40
2019-01-24T13:30:53.380Z,-3.40
2019-01-24T13:36:33.695Z,-3.50
2019-01-24T13:39:14.980Z,-3.50
2019-01-24T13:41:52.487Z,-3.50
2019-01-24T13:44:28.069Z,-3.60
2019-01-24T13:47:00.177Z,-3.60
2019-01-24T13:49:33.485Z,-3.60
2019-01-24T13:52:10.064Z,-3.70
2019-01-24T13:54:45.663Z,-3.70
2019-01-24T14:00:20.583Z,-3.70
2019-01-24T14:02:55.581Z,-3.80
2019-01-24T14:05:34.656Z,-3.80
2019-01-24T14:10:46.145Z,-4.00
2019-01-24T14:13:56.361Z,-4.10
2019-01-24T14:22:36.099Z,-4.30
2019-01-24T14:25:11.900Z,-4.40
2019-01-24T14:27:46.827Z,-4.60
2019-01-24T14:33:14.771Z,-4.80
2019-01-24T14:35:48.801Z,-4.90
2019-01-24T14:38:19.186Z,-5.10
2019-01-24T14:40:48.753Z,-5.10
2019-01-24T14:43:24.151Z,-5.30
2019-01-24T14:45:54.752Z,-5.30
2019-01-24T14:48:26.053Z,-5.50
2019-01-24T14:51:00.263Z,-5.60
2019-01-24T14:53:39.841Z,-5.60
2019-01-24T14:56:15.680Z,-5.80
2019-01-24T14:58:49.884Z,-5.90
2019-01-24T15:01:32.757Z,-5.90
2019-01-24T15:04:09.300Z,-5.90
2019-01-24T15:06:52.490Z,-6.10
2019-01-24T15:09:24.036Z,-6.20
2019-01-24T15:11:54.960Z,-6.20
2019-01-24T15:14:35.947Z,-6.40
2019-01-24T15:17:14.439Z,-6.40
2019-01-24T15:19:51.108Z,-6.50
2019-01-24T15:25:19.626Z,-6.60
2019-01-24T15:28:00.998Z,-6.70
2019-01-24T15:30:42.310Z,-6.80
2019-01-24T15:33:24.266Z,-6.80
2019-01-24T15:36:04.871Z,-6.90
2019-01-24T15:38:41.449Z,-6.90
2019-01-24T15:41:21.728Z,-6.90
2019-01-24T15:43:59.526Z,-6.90
2019-01-24T15:46:41.801Z,-7.00
2019-01-24T15:49:21.315Z,-7.10
2019-01-24T15:51:59.884Z,-7.20
2019-01-24T15:54:38.285Z,-7.30
2019-01-24T15:57:16.810Z,-7.30
2019-01-24T15:59:56.159Z,-7.40
2019-01-24T16:02:33.714Z,-7.40
2019-01-24T16:08:02.127Z,-7.50
2019-01-24T16:10:37.911Z,-7.60
2019-01-24T16:13:18.351Z,-7.60
2019-01-24T16:15:54.791Z,-7.60
2019-01-24T16:18:28.741Z,-7.70
2019-01-24T16:21:05.345Z,-7.70
2019-01-24T16:23:45.383Z,-7.70
2019-01-24T16:26:23.593Z,-7.80
2019-01-24T16:31:56.459Z,-7.90
2019-01-24T16:34:38.744Z,-7.90
2019-01-24T16:37:13.059Z,-7.90
2019-01-24T16:39:53.543Z,-8.00
2019-01-24T16:42:32.699Z,-8.00
2019-01-24T16:45:10.243Z,-8.00
2019-01-24T16:47:50.912Z,-8.00
2019-01-24T16:50:28.865Z,-8.10
2019-01-24T16:53:06.671Z,-8.10
2019-01-24T16:55:41.067Z,-8.10
2019-01-24T16:58:18.567Z,-8.10
2019-01-24T17:01:24.584Z,-8.20
2019-01-24T17:03:58.394Z,-8.20
2019-01-24T17:06:32.012Z,-8.20
2019-01-24T17:09:09.350Z,-8.20
2019-01-24T17:14:52.723Z,-8.30
2019-01-24T17:20:25.924Z,-8.40
2019-01-24T17:22:57.383Z,-8.40
2019-01-24T17:25:32.305Z,-8.40
2019-01-24T17:28:07.436Z,-8.40
2019-01-24T17:30:45.932Z,-8.50
2019-01-24T17:33:24.358Z,-8.50
2019-01-24T17:36:02.216Z,-8.50
2019-01-24T17:38:40.776Z,-8.50
2019-01-24T17:41:21.315Z,-8.50
2019-01-24T17:43:58.764Z,-8.60
2019-01-24T17:46:37.419Z,-8.60
2019-01-24T17:49:51.559Z,-8.60
2019-01-24T17:52:33.930Z,-8.60
2019-01-24T17:55:13.035Z,-8.60
2019-01-24T17:57:47.181Z,-8.60
2019-01-24T18:00:25.708Z,-8.50
2019-01-24T18:03:06.115Z,-8.50
2019-01-24T18:05:46.183Z,-8.50
2019-01-24T18:08:22.088Z,-8.50
2019-01-24T18:11:00.527Z,-8.50
2019-01-24T18:13:40.998Z,-8.50
2019-01-24T18:16:22.279Z,-8.50
2019-01-24T18:19:03.717Z,-8.50
2019-01-24T18:21:41.994Z,-8.50
2019-01-24T18:24:19.823Z,-8.50
2019-01-24T18:26:55.782Z,-8.50
2019-01-24T18:29:38.084Z,-8.50
2019-01-24T18:32:17.828Z,-8.50
2019-01-24T18:34:56.327Z,-8.50
2019-01-24T18:37:29.319Z,-8.50
2019-01-24T18:40:02.336Z,-8.50
2019-01-24T18:42:35.882Z,-8.50
2019-01-24T18:45:09.759Z,-8.60
2019-01-24T18:47:44.320Z,-8.60
2019-01-24T18:50:20.618Z,-8.60
2019-01-24T18:52:53.303Z,-8.60
2019-01-24T18:55:29.123Z,-8.60
2019-01-24T18:58:04.031Z,-8.60
2019-01-24T19:00:40.415Z,-8.60
2019-01-24T19:03:18.591Z,-8.60
2019-01-24T19:05:52.489Z,-8.60
2019-01-24T19:08:24.740Z,-8.60
2019-01-24T19:10:58.404Z,-8.60
2019-01-24T19:13:28.306Z,-8.60
2019-01-24T19:16:00.503Z,-8.60
2019-01-24T19:18:34.220Z,-8.60
2019-01-24T19:23:57.799Z,-8.60
2019-01-24T19:26:33.511Z,-8.70
2019-01-24T19:29:08.227Z,-8.70
2019-01-24T19:31:42.116Z,-8.60
2019-01-24T19:34:16.704Z,-8.70
2019-01-24T19:36:47.996Z,-8.70
2019-01-24T19:39:21.806Z,-8.70
2019-01-24T19:45:08.788Z,-8.70
2019-01-24T19:47:45.924Z,-8.70
2019-01-24T19:53:14.880Z,-8.70
2019-01-24T19:55:51.392Z,-8.70
2019-01-24T19:59:01.607Z,-8.80
2019-01-24T20:01:35.679Z,-8.80
2019-01-24T20:04:09.035Z,-8.80
2019-01-24T20:06:43.237Z,-8.80
2019-01-24T20:09:16.880Z,-8.80
2019-01-24T20:11:50.480Z,-8.80
2019-01-24T20:14:26.852Z,-8.80
2019-01-24T20:17:01.575Z,-8.80
2019-01-24T20:19:35.155Z,-8.80
2019-01-24T20:22:08.490Z,-8.70
2019-01-24T20:24:46.791Z,-8.60
2019-01-24T20:27:23.135Z,-8.50
2019-01-24T20:30:00.991Z,-8.50
2019-01-24T20:32:33.251Z,-8.40
2019-01-24T20:35:07.812Z,-8.30
2019-01-24T20:37:41.029Z,-8.20
2019-01-24T20:40:13.247Z,-8.10
2019-01-24T20:42:46.272Z,-8.00
2019-01-24T20:45:19.359Z,-7.90
2019-01-24T20:47:49.584Z,-7.80
2019-01-24T20:50:27.299Z,-7.60
2019-01-24T20:53:00.511Z,-7.50
2019-01-24T20:55:31.823Z,-7.40
2019-01-24T20:58:03.488Z,-7.40
2019-01-24T21:00:54.027Z,-7.30
2019-01-24T21:03:26.879Z,-7.20
2019-01-24T21:05:57.323Z,-7.10
2019-01-24T21:08:28.886Z,-6.90
2019-01-24T21:11:05.087Z,-6.90
2019-01-24T21:13:38.169Z,-6.80
2019-01-24T21:16:12.835Z,-6.70
2019-01-24T21:18:45.800Z,-6.60
2019-01-24T21:21:20.319Z,-6.50
2019-01-24T21:23:54.847Z,-6.40
2019-01-24T21:26:27.595Z,-6.20
2019-01-24T21:29:02.055Z,-6.10
2019-01-24T21:34:29.893Z,-6.00
2019-01-24T21:37:02.531Z,-5.90
2019-01-24T21:39:37.855Z,-5.90
2019-01-24T21:42:12.256Z,-5.80
2019-01-24T21:44:48.544Z,-5.80
2019-01-24T21:47:25.427Z,-5.80
2019-01-24T21:49:58.084Z,-5.70
2019-01-24T21:52:31.083Z,-5.70
2019-01-24T21:55:03.329Z,-5.60
2019-01-24T21:57:36.993Z,-5.60
2019-01-24T22:00:11.775Z,-5.60
2019-01-24T22:02:44.351Z,-5.60
2019-01-24T22:05:18.282Z,-5.70
2019-01-24T22:07:53.280Z,-5.60
2019-01-24T22:10:26.451Z,-5.50
2019-01-24T22:13:01.287Z,-5.50
2019-01-24T22:15:34.376Z,-5.50
2019-01-24T22:18:05.922Z,-5.50
2019-01-24T22:20:39.015Z,-5.40
2019-01-24T22:23:12.013Z,-5.40
2019-01-24T22:25:41.606Z,-5.40
2019-01-24T22:28:13.583Z,-5.40
2019-01-24T22:30:51.370Z,-5.40
2019-01-24T22:33:24.944Z,-5.40
2019-01-24T22:36:03.648Z,-5.40
2019-01-24T22:38:37.155Z,-5.40
2019-01-24T22:41:10.335Z,-5.40
2019-01-24T22:43:44.775Z,-5.40
2019-01-24T22:46:18.799Z,-5.50
2019-01-24T22:48:52.019Z,-5.50
2019-01-24T22:51:25.602Z,-5.50
2019-01-24T22:53:58.125Z,-5.40
2019-01-24T22:56:35.348Z,-5.40
2019-01-24T22:59:03.913Z,-5.40
2019-01-24T23:02:09.963Z,-5.40
2019-01-24T23:05:09.417Z,-5.40
2019-01-24T23:07:52.031Z,-5.50
2019-01-24T23:10:33.695Z,-5.40
2019-01-24T23:13:04.522Z,-5.40
2019-01-24T23:15:35.007Z,-5.40
2019-01-24T23:18:05.243Z,-5.40
2019-01-24T23:20:38.436Z,-5.40
2019-01-24T23:23:11.951Z,-5.50
2019-01-24T23:25:45.991Z,-5.40
2019-01-24T23:28:19.487Z,-5.40
2019-01-24T23:30:52.991Z,-5.40
2019-01-24T23:33:26.466Z,-5.40
2019-01-24T23:35:59.592Z,-5.40
2019-01-24T23:38:31.742Z,-5.40
2019-01-24T23:41:04.327Z,-5.40
2019-01-24T23:43:34.331Z,-5.40
2019-01-24T23:46:06.207Z,-5.30
2019-01-24T23:48:40.007Z,-5.30
2019-01-24T23:51:13.088Z,-5.40
2019-01-24T23:53:48.479Z,-5.30
2019-01-24T23:56:56.934Z,-5.30
2019-01-24T23:59:29.063Z,-5.30
